Time;durP1;ratioP1;P1;durP2;ratioP2;P2;SDS_P1;SDS_P2;PMS_P1;PMS_P2;Temp;Humidity;BMP_temperature;BMP_pressure;BME280_temperature;BME280_humidity;BME280_pressure;Samples;Min_cycle;Max_cycle;Signal;HPM_P1;HPM_P2
2024/02/20 00:01:56;;;;;;;3.80;3.00;;;;;;;9.20;100.00;101375.41;6098417;23;20170;-66
2024/02/20 00:04:25;;;;;;;2.95;2.65;;;;;;;9.13;100.00;101378.84;6073130;23;20226;-66
2024/02/20 00:06:58;;;;;;;1.75;1.30;;;;;;;9.04;100.00;101385.31;6072779;23;20175;-67
2024/02/20 00:09:27;;;;;;;5.32;2.60;;;;;;;9.18;100.00;101375.59;6098240;23;20187;-66
2024/02/20 00:11:56;;;;;;;4.32;3.90;;;;;;;9.11;100.00;101383.56;6098736;23;20613;-66
2024/02/20 00:14:25;;;;;;;2.75;1.85;;;;;;;9.11;100.00;101380.88;6098594;23;20194;-64
2024/02/20 00:16:53;;;;;;;4.88;1.92;;;;;;;9.20;100.00;101378.13;6098854;23;20152;-66
2024/02/20 00:19:22;;;;;;;4.07;2.10;;;;;;;9.15;100.00;101382.19;6099104;23;20188;-66
2024/02/20 00:21:51;;;;;;;2.55;2.28;;;;;;;9.12;100.00;101379.84;6073304;23;20196;-67
2024/02/20 00:24:22;;;;;;;2.35;2.20;;;;;;;9.07;100.00;101374.16;6098321;23;20166;-65
2024/02/20 00:26:51;;;;;;;3.75;1.88;;;;;;;9.19;100.00;101382.69;6099155;23;20158;-67
2024/02/20 00:29:19;;;;;;;3.40;2.63;;;;;;;9.18;100.00;101386.41;6099185;23;20191;-67
2024/02/20 00:31:48;;;;;;;3.25;2.63;;;;;;;9.14;100.00;101385.91;6099090;23;20222;-66
2024/02/20 00:34:18;;;;;;;4.35;2.97;;;;;;;9.22;100.00;101386.84;6073155;23;20251;-67
2024/02/20 00:36:47;;;;;;;5.13;2.88;;;;;;;9.23;100.00;101385.84;6097458;23;20159;-65
2024/02/20 00:39:16;;;;;;;8.73;3.80;;;;;;;9.18;100.00;101388.25;6097399;23;20190;-66
2024/02/20 00:41:47;;;;;;;7.80;2.80;;;;;;;9.18;100.00;101385.56;6097779;23;20207;-66
2024/02/20 00:44:17;;;;;;;3.65;2.15;;;;;;;9.13;100.00;101395.03;6098355;23;20593;-68
2024/02/20 00:46:46;;;;;;;2.15;1.45;;;;;;;9.25;100.00;101375.69;6098531;23;20515;-65
2024/02/20 00:49:15;;;;;;;1.30;1.00;;;;;;;9.18;100.00;101390.94;6097765;23;20340;-66
2024/02/20 00:51:45;;;;;;;3.85;2.40;;;;;;;9.22;100.00;101387.69;6097820;23;20163;-69
2024/02/20 00:54:14;;;;;;;2.50;1.25;;;;;;;9.16;100.00;101383.88;6098224;23;20235;-67
2024/02/20 00:56:44;;;;;;;3.38;2.22;;;;;;;9.19;100.00;101392.63;6097950;23;20163;-67
2024/02/20 00:59:13;;;;;;;2.00;1.75;;;;;;;9.23;100.00;101392.09;6098032;23;20696;-66
2024/02/20 01:01:42;;;;;;;3.40;2.28;;;;;;;9.12;100.00;101382.56;6098252;23;20176;-66
2024/02/20 01:04:11;;;;;;;7.10;2.58;;;;;;;9.07;100.00;101386.81;6098026;23;20171;-66
2024/02/20 01:06:41;;;;;;;3.15;2.80;;;;;;;9.04;100.00;101379.94;6097740;23;20174;-67
2024/02/20 01:09:11;;;;;;;4.93;2.20;;;;;;;9.06;100.00;101388.66;6097402;23;20259;-65
2024/02/20 01:11:40;;;;;;;3.55;2.45;;;;;;;9.11;100.00;101385.41;6097621;23;20156;-66
2024/02/20 01:14:11;;;;;;;12.20;2.22;;;;;;;9.08;100.00;101381.25;6098214;23;20155;-65
2024/02/20 01:16:39;;;;;;;2.35;2.15;;;;;;;8.99;100.00;101382.31;6098558;23;20171;-65
2024/02/20 01:19:08;;;;;;;3.45;2.22;;;;;;;9.02;100.00;101381.94;6098300;23;20188;-65
2024/02/20 01:21:41;;;;;;;2.30;1.77;;;;;;;9.10;100.00;101387.28;6099717;23;20183;-66
2024/02/20 01:24:09;;;;;;;2.20;1.50;;;;;;;9.00;100.00;101373.22;6099547;23;20167;-65
2024/02/20 01:26:41;;;;;;;2.15;1.88;;;;;;;9.08;100.00;101385.78;6099106;23;20238;-67
2024/02/20 01:29:12;;;;;;;5.78;2.10;;;;;;;9.03;100.00;101380.09;6099500;23;20563;-67
2024/02/20 01:31:41;;;;;;;3.53;1.58;;;;;;;9.05;100.00;101378.88;6100084;23;20148;-67
2024/02/20 01:34:10;;;;;;;1.55;1.40;;;;;;;8.97;100.00;101378.94;6098755;23;20170;-69
2024/02/20 01:36:39;;;;;;;9.63;2.25;;;;;;;8.93;100.00;101376.78;6099103;23;20498;-65
2024/02/20 01:39:08;;;;;;;1.35;1.25;;;;;;;8.95;100.00;101382.88;6099142;23;20718;-66
2024/02/20 01:41:37;;;;;;;3.40;2.92;;;;;;;8.93;100.00;101374.94;6099306;23;20203;-66
2024/02/20 01:44:06;;;;;;;1.67;1.00;;;;;;;8.97;100.00;101378.94;6098993;23;20222;-65
2024/02/20 01:46:36;;;;;;;2.10;1.55;;;;;;;8.91;100.00;101376.97;6098226;23;20167;-65
2024/02/20 01:49:06;;;;;;;1.85;1.60;;;;;;;8.94;100.00;101378.47;6097770;23;20659;-66
2024/02/20 01:51:37;;;;;;;4.95;1.92;;;;;;;8.87;100.00;101378.34;6071847;23;20512;-64
2024/02/20 01:54:06;;;;;;;2.00;1.67;;;;;;;8.86;100.00;101376.66;6097317;23;20222;-65
2024/02/20 01:56:36;;;;;;;3.35;2.45;;;;;;;8.88;100.00;101377.34;6097084;23;20144;-67
2024/02/20 01:59:05;;;;;;;4.05;1.63;;;;;;;8.90;100.00;101386.09;6097336;23;20624;-65
2024/02/20 02:01:35;;;;;;;4.47;2.00;;;;;;;8.83;100.00;101386.97;6097307;23;20175;-65
2024/02/20 02:04:05;;;;;;;4.63;2.10;;;;;;;8.76;100.00;101376.09;6097397;23;20227;-63
2024/02/20 02:09:15;;;;;;;1.70;1.60;;;;;;;8.68;100.00;101379.66;6095920;23;20440;-65
2024/02/20 02:11:44;;;;;;;5.68;2.72;;;;;;;8.67;100.00;101385.22;6096998;23;20222;-65
2024/02/20 02:14:13;;;;;;;3.40;2.38;;;;;;;8.75;100.00;101373.56;6096767;23;20168;-66
2024/02/20 02:16:46;;;;;;;4.75;2.50;;;;;;;8.83;100.00;101374.34;6097680;23;20155;-66
2024/02/20 02:19:15;;;;;;;12.13;2.15;;;;;;;8.73;100.00;101373.72;6097713;23;20187;-66
2024/02/20 02:21:45;;;;;;;6.03;2.80;;;;;;;8.83;100.00;101366.22;6098514;23;20674;-67
2024/02/20 02:24:14;;;;;;;2.63;2.42;;;;;;;8.88;100.00;101374.63;6097787;23;20152;-66
2024/02/20 02:26:44;;;;;;;3.08;1.38;;;;;;;8.81;100.00;101370.16;6098462;23;20164;-66
2024/02/20 02:29:13;;;;;;;2.08;1.45;;;;;;;8.80;100.00;101380.09;6098223;23;20187;-68
2024/02/20 02:31:41;;;;;;;2.00;1.20;;;;;;;8.77;100.00;101371.50;6072267;23;20187;-67
2024/02/20 02:34:11;;;;;;;2.95;2.38;;;;;;;8.83;100.00;101374.34;6097249;23;20612;-66
2024/02/20 02:36:40;;;;;;;3.83;1.60;;;;;;;8.82;100.00;101372.63;6096954;23;20227;-68
2024/02/20 02:39:09;;;;;;;4.22;1.63;;;;;;;8.80;100.00;101382.78;6096901;23;20183;-67
2024/02/20 02:41:38;;;;;;;1.98;1.88;;;;;;;8.71;100.00;101390.06;6097130;23;20524;-65
2024/02/20 02:44:08;;;;;;;7.60;2.95;;;;;;;8.67;100.00;101386.06;6097166;23;20483;-66
2024/02/20 02:46:37;;;;;;;2.35;1.20;;;;;;;8.73;100.00;101385.34;6097111;23;20155;-64
2024/02/20 02:49:07;;;;;;;2.95;2.00;;;;;;;8.75;100.00;101387.03;6096825;23;20778;-67
2024/02/20 02:51:37;;;;;;;1.52;1.00;;;;;;;8.79;100.00;101383.81;6097238;23;20178;-64
2024/02/20 02:54:05;;;;;;;1.30;1.17;;;;;;;8.84;100.00;101384.13;6098543;23;20243;-65
2024/02/20 02:56:36;;;;;;;2.45;1.25;;;;;;;8.62;100.00;101385.75;6099965;23;20168;-67
2024/02/20 02:59:05;;;;;;;1.52;1.23;;;;;;;8.61;100.00;101378.69;6101183;23;20198;-65
2024/02/20 03:01:35;;;;;;;2.85;1.50;;;;;;;8.73;100.00;101384.50;6097842;23;20218;-64
2024/02/20 03:04:04;;;;;;;4.32;2.50;;;;;;;8.67;100.00;101385.22;6098595;23;20152;-67
2024/02/20 03:06:39;;;;;;;1.30;1.00;;;;;;;8.70;100.00;101392.97;6098801;23;20160;-67
2024/02/20 03:09:12;;;;;;;2.33;1.70;;;;;;;8.66;100.00;101378.16;6073060;23;20222;-66
2024/02/20 03:11:42;;;;;;;1.08;0.98;;;;;;;8.69;100.00;101391.28;6098427;23;20639;-67
2024/02/20 03:14:12;;;;;;;1.63;1.05;;;;;;;8.72;100.00;101382.81;6097609;23;20164;-66
2024/02/20 03:16:42;;;;;;;1.42;1.02;;;;;;;8.66;100.00;101386.25;6097854;23;20644;-66
2024/02/20 03:19:11;;;;;;;1.38;0.95;;;;;;;8.50;100.00;101391.72;6098057;23;20187;-65
2024/02/20 03:21:41;;;;;;;2.78;1.45;;;;;;;8.39;100.00;101389.41;6098153;23;20171;-66
2024/02/20 03:24:10;;;;;;;2.67;1.30;;;;;;;8.42;100.00;101394.47;6098152;23;20529;-65
2024/02/20 03:26:39;;;;;;;1.20;1.00;;;;;;;8.39;100.00;101390.25;6096969;23;20203;-66
2024/02/20 03:29:08;;;;;;;1.15;1.00;;;;;;;8.45;100.00;101394.97;6097352;23;20264;-65
2024/02/20 03:31:37;;;;;;;1.80;0.90;;;;;;;8.55;100.00;101406.38;6097718;23;20203;-65
2024/02/20 03:34:07;;;;;;;3.83;1.95;;;;;;;8.50;100.00;101402.53;6098694;23;20167;-67
2024/02/20 03:36:36;;;;;;;1.48;0.90;;;;;;;8.54;100.00;101398.44;6097476;23;20496;-66
2024/02/20 03:39:05;;;;;;;3.65;1.48;;;;;;;8.57;100.00;101400.78;6096709;23;20183;-66
2024/02/20 03:41:33;;;;;;;3.55;1.52;;;;;;;8.53;100.00;101405.69;6097782;23;20210;-65
2024/02/20 03:44:02;;;;;;;1.88;1.20;;;;;;;8.51;100.00;101410.44;6097735;23;20511;-66
2024/02/20 03:46:31;;;;;;;1.45;1.05;;;;;;;8.50;100.00;101416.00;6097059;23;20215;-66
2024/02/20 03:49:00;;;;;;;1.75;1.05;;;;;;;8.52;100.00;101411.28;6096397;23;20222;-65
2024/02/20 03:51:30;;;;;;;1.08;0.75;;;;;;;8.47;100.00;101413.69;6096096;23;20256;-66
2024/02/20 03:53:59;;;;;;;1.23;0.82;;;;;;;8.51;100.00;101412.31;6096553;23;20187;-67
2024/02/20 03:56:28;;;;;;;2.65;1.30;;;;;;;8.48;100.00;101421.56;6095887;23;20169;-66
2024/02/20 03:58:57;;;;;;;1.45;1.25;;;;;;;8.41;100.00;101417.91;6070426;23;20222;-66
2024/02/20 04:01:25;;;;;;;1.40;1.08;;;;;;;8.35;100.00;101428.56;6070624;23;20656;-63
2024/02/20 04:03:54;;;;;;;1.83;1.67;;;;;;;8.40;100.00;101428.88;6096212;23;20223;-65
2024/02/20 04:06:23;;;;;;;3.80;0.88;;;;;;;8.28;100.00;101426.50;6096234;23;20171;-66
2024/02/20 04:08:54;;;;;;;1.42;1.33;;;;;;;8.31;100.00;101429.91;6070079;23;20195;-65
2024/02/20 04:11:22;;;;;;;1.23;0.88;;;;;;;8.31;100.00;101421.81;6097122;23;20195;-65
2024/02/20 04:13:51;;;;;;;1.73;1.00;;;;;;;8.23;100.00;101428.88;6098247;23;20159;-64
2024/02/20 04:16:20;;;;;;;1.77;1.23;;;;;;;8.33;100.00;101420.63;6097677;23;20168;-67
2024/02/20 04:18:49;;;;;;;0.95;0.60;;;;;;;8.25;100.00;101432.25;6097665;23;20207;-66
2024/02/20 04:21:18;;;;;;;1.00;0.60;;;;;;;8.31;100.00;101429.91;6098030;23;20152;-64
2024/02/20 04:23:48;;;;;;;1.33;1.13;;;;;;;8.25;100.00;101426.88;6097249;23;20186;-66
2024/02/20 04:26:19;;;;;;;1.10;0.70;;;;;;;8.25;100.00;101432.25;6097923;23;20156;-66
2024/02/20 04:28:48;;;;;;;1.20;0.65;;;;;;;8.40;100.00;101439.66;6098708;23;20190;-66
2024/02/20 04:31:17;;;;;;;2.13;1.00;;;;;;;8.36;100.00;101439.16;6073948;23;20174;-65
2024/02/20 04:33:46;;;;;;;1.17;1.08;;;;;;;8.32;100.00;101442.41;6101443;23;20179;-68
2024/02/20 04:36:16;;;;;;;0.90;0.75;;;;;;;8.29;100.00;101441.72;6112591;23;20167;-67
2024/02/20 04:38:45;;;;;;;1.17;0.60;;;;;;;8.32;100.00;101442.41;6099908;23;20644;-67
2024/02/20 04:41:25;;;;;;;2.22;0.60;;;;;;;8.33;100.00;101454.88;6073045;23;20171;-64
2024/02/20 04:43:54;;;;;;;1.33;0.95;;;;;;;8.18;100.00;101452.00;6097025;23;20226;-65
2024/02/20 04:46:23;;;;;;;1.55;0.80;;;;;;;8.15;100.00;101453.19;6097334;23;20171;-66
2024/02/20 04:48:52;;;;;;;1.45;0.98;;;;;;;8.15;100.00;101452.34;6097105;23;20660;-66
2024/02/20 04:51:20;;;;;;;0.95;0.65;;;;;;;8.13;100.00;101465.97;6097048;23;20155;-66
2024/02/20 04:53:49;;;;;;;3.38;1.02;;;;;;;8.16;100.00;101465.66;6097553;23;20489;-65
2024/02/20 04:56:18;;;;;;;0.80;0.45;;;;;;;8.19;100.00;101457.22;6097475;23;20194;-66
2024/02/20 04:58:48;;;;;;;1.23;1.13;;;;;;;8.23;100.00;101465.78;6097124;23;20569;-67
2024/02/20 05:01:18;;;;;;;1.00;0.60;;;;;;;8.22;100.00;101475.75;6097097;23;20156;-67
2024/02/20 05:03:47;;;;;;;1.20;0.85;;;;;;;8.11;100.00;101456.41;6097174;23;20186;-66
2024/02/20 05:06:16;;;;;;;0.90;0.63;;;;;;;8.10;100.00;101470.88;6071533;23;20255;-66
2024/02/20 05:08:45;;;;;;;6.40;0.70;;;;;;;8.07;100.00;101472.09;6097083;23;20190;-66
2024/02/20 05:11:13;;;;;;;1.30;0.90;;;;;;;8.09;100.00;101474.59;6097019;23;20215;-66
2024/02/20 05:13:42;;;;;;;1.10;0.82;;;;;;;8.06;100.00;101474.94;6097263;23;20159;-66
2024/02/20 05:16:12;;;;;;;0.90;0.70;;;;;;;7.94;100.00;101473.63;6096889;23;20163;-66
2024/02/20 05:18:41;;;;;;;0.80;0.50;;;;;;;7.93;100.00;101474.66;6096691;23;20528;-65
2024/02/20 05:21:10;;;;;;;1.00;0.55;;;;;;;7.89;100.00;101473.31;6096806;23;20187;-66
2024/02/20 05:23:39;;;;;;;0.80;0.50;;;;;;;7.79;100.00;101474.28;6096558;23;20199;-67
2024/02/20 05:26:08;;;;;;;1.55;1.00;;;;;;;7.88;100.00;101477.00;6097085;23;20156;-66
2024/02/20 05:28:36;;;;;;;0.82;0.55;;;;;;;7.76;100.00;101479.19;6096894;23;20187;-65
2024/02/20 05:31:28;;;;;;;0.90;0.65;;;;;;;7.76;100.00;101485.44;6097335;23;20601;-65
2024/02/20 05:33:57;;;;;;;0.90;0.60;;;;;;;7.80;100.00;101485.91;6097204;23;20198;-66
2024/02/20 05:36:29;;;;;;;0.90;0.80;;;;;;;7.77;100.00;101489.81;6097018;23;20168;-66
2024/02/20 05:39:02;;;;;;;1.00;0.60;;;;;;;7.75;100.00;101493.66;6097250;23;20187;-67
2024/02/20 05:41:32;;;;;;;0.80;0.50;;;;;;;7.85;100.00;101494.34;6097370;23;20152;-67
2024/02/20 05:44:01;;;;;;;1.27;0.55;;;;;;;7.74;100.00;101498.25;6097447;23;20644;-66
2024/02/20 05:46:39;;;;;;;0.90;0.50;;;;;;;7.76;100.00;101506.97;6097773;23;20167;-66
2024/02/20 05:49:09;;;;;;;0.80;0.50;;;;;;;7.72;100.00;101502.09;6099350;23;20195;-66
2024/02/20 05:51:38;;;;;;;0.80;0.50;;;;;;;7.75;100.00;101509.84;6099513;23;20156;-67
2024/02/20 05:54:07;;;;;;;2.75;1.25;;;;;;;7.77;100.00;101515.91;6073074;23;20167;-65
2024/02/20 05:56:36;;;;;;;4.82;1.00;;;;;;;7.79;100.00;101511.22;6097742;23;20152;-65
2024/02/20 05:59:05;;;;;;;0.80;0.50;;;;;;;7.76;100.00;101511.53;6096742;23;20187;-65
2024/02/20 06:01:36;;;;;;;1.05;0.80;;;;;;;7.80;100.00;101523.66;6097089;23;20167;-66
2024/02/20 06:04:05;;;;;;;1.00;0.60;;;;;;;7.73;100.00;101520.81;6096499;23;20176;-68
2024/02/20 06:06:34;;;;;;;2.25;0.82;;;;;;;7.70;100.00;101521.13;6096859;23;20600;-65
2024/02/20 06:09:04;;;;;;;1.10;0.60;;;;;;;7.63;100.00;101532.75;6096763;23;20211;-65
2024/02/20 06:11:32;;;;;;;0.80;0.60;;;;;;;7.63;100.00;101532.75;6097329;23;20222;-64
2024/02/20 06:14:02;;;;;;;0.80;0.40;;;;;;;7.64;100.00;101524.50;6097440;23;20617;-62
2024/02/20 06:16:31;;;;;;;1.55;1.13;;;;;;;7.74;100.00;101535.97;6096517;23;20172;-63
2024/02/20 06:19:01;;;;;;;1.20;1.10;;;;;;;7.63;100.00;101538.13;6096018;23;20524;-60
2024/02/20 06:21:30;;;;;;;0.80;0.50;;;;;;;7.61;100.00;101534.75;6096620;23;20609;-63
2024/02/20 06:23:58;;;;;;;2.75;0.77;;;;;;;7.71;100.00;101546.22;6096443;23;20727;-64
2024/02/20 06:26:29;;;;;;;0.80;0.60;;;;;;;7.68;100.00;101552.78;6096069;23;20286;-61
2024/02/20 06:28:58;;;;;;;0.90;0.60;;;;;;;7.70;100.00;101549.91;6096083;23;20191;-64
2024/02/20 06:31:27;;;;;;;0.88;0.60;;;;;;;7.73;100.00;101550.44;6070592;23;20171;-63
2024/02/20 06:33:55;;;;;;;0.80;0.50;;;;;;;7.69;100.00;101554.47;6095155;23;20515;-60
2024/02/20 06:36:26;;;;;;;0.90;0.70;;;;;;;7.63;100.00;101557.00;6095254;23;20546;-65
2024/02/20 06:38:56;;;;;;;6.57;0.73;;;;;;;7.48;100.00;101558.66;6095272;23;20524;-63
2024/02/20 06:41:24;;;;;;;0.85;0.50;;;;;;;7.58;100.00;101562.03;6095101;23;20171;-65
2024/02/20 06:43:53;;;;;;;0.80;0.50;;;;;;;7.65;100.00;101563.06;6095528;23;20688;-65
2024/02/20 06:46:23;;;;;;;0.80;0.50;;;;;;;7.52;100.00;101562.69;6095147;23;20148;-62
2024/02/20 06:48:52;;;;;;;1.00;0.60;;;;;;;7.50;100.00;101562.03;6095066;23;20250;-63
2024/02/20 06:51:23;;;;;;;1.90;0.77;;;;;;;7.51;100.00;101567.22;6095293;23;20623;-64
2024/02/20 06:53:54;;;;;;;0.80;0.50;;;;;;;7.53;100.00;101573.31;6096943;23;20155;-66
2024/02/20 06:56:23;;;;;;;1.05;0.60;;;;;;;7.60;100.00;101576.19;6098794;23;20159;-65
2024/02/20 06:58:52;;;;;;;1.38;0.90;;;;;;;7.53;100.00;101575.16;6101705;23;20266;-66
2024/02/20 07:01:21;;;;;;;3.63;0.82;;;;;;;7.51;100.00;101577.16;6099010;23;20191;-65
2024/02/20 07:03:52;;;;;;;1.77;1.13;;;;;;;7.48;100.00;101577.50;6098941;23;20175;-65
2024/02/20 07:06:23;;;;;;;0.90;0.50;;;;;;;7.57;100.00;101584.59;6096940;23;20203;-65
2024/02/20 07:08:54;;;;;;;0.80;0.50;;;;;;;7.48;100.00;101581.03;6096832;23;20656;-68
2024/02/20 07:11:23;;;;;;;1.33;0.82;;;;;;;7.68;100.00;101589.66;6097123;23;20152;-67
2024/02/20 07:13:55;;;;;;;0.85;0.50;;;;;;;7.62;100.00;101593.00;6096563;23;20195;-67
2024/02/20 07:16:24;;;;;;;1.20;0.80;;;;;;;7.73;100.00;101598.09;6096579;23;20160;-66
2024/02/20 07:18:53;;;;;;;0.80;0.55;;;;;;;7.83;100.00;101594.22;6096719;23;20215;-66
2024/02/20 07:21:22;;;;;;;3.28;0.80;;;;;;;7.75;100.00;101602.28;6096423;23;20156;-66
2024/02/20 07:23:50;;;;;;;0.80;0.45;;;;;;;7.75;100.00;101604.13;6096454;23;20179;-66
2024/02/20 07:26:25;;;;;;;1.45;0.70;;;;;;;7.65;100.00;101603.47;6096520;23;20222;-67
2024/02/20 07:28:54;;;;;;;0.98;0.88;;;;;;;7.74;100.00;101602.47;6095923;23;20513;-67
2024/02/20 07:31:23;;;;;;;1.02;0.60;;;;;;;7.71;100.00;101609.03;6096464;23;20178;-67
2024/02/20 07:33:53;;;;;;;0.90;0.55;;;;;;;7.75;100.00;101613.06;6095874;23;20581;-67
2024/02/20 07:36:36;;;;;;;0.90;0.60;;;;;;;7.73;100.00;101614.25;6096510;23;20191;-67
2024/02/20 07:39:08;;;;;;;1.15;0.70;;;;;;;7.83;100.00;101621.19;6095894;23;20195;-67
2024/02/20 07:41:39;;;;;;;0.80;0.57;;;;;;;7.78;100.00;101612.75;6096145;23;20589;-66
2024/02/20 07:44:08;;;;;;;1.08;0.65;;;;;;;7.86;100.00;101620.00;6095796;23;20178;-69
2024/02/20 07:46:38;;;;;;;0.90;0.50;;;;;;;7.85;100.00;101618.28;6098312;23;20604;-65
2024/02/20 07:49:07;;;;;;;0.88;0.50;;;;;;;7.89;100.00;101627.72;6098067;23;20191;-67
2024/02/20 07:51:37;;;;;;;1.60;1.00;;;;;;;7.85;100.00;101623.69;6098211;23;20215;-64
2024/02/20 07:54:06;;;;;;;2.75;0.70;;;;;;;7.79;100.00;101621.69;6098273;23;20601;-66
2024/02/20 07:56:35;;;;;;;0.90;0.57;;;;;;;7.88;100.00;101631.47;6098320;23;20159;-66
2024/02/20 07:59:05;;;;;;;0.80;0.57;;;;;;;7.93;100.00;101631.81;6098364;23;20199;-66
2024/02/20 08:01:34;;;;;;;1.30;0.73;;;;;;;7.98;100.00;101629.44;6098329;23;20152;-68
2024/02/20 08:04:03;;;;;;;1.23;0.90;;;;;;;8.05;100.00;101638.53;6099093;23;20167;-67
2024/02/20 08:06:33;;;;;;;0.82;0.55;;;;;;;8.05;100.00;101635.84;6103959;23;20156;-67
2024/02/20 08:09:03;;;;;;;1.10;1.00;;;;;;;8.06;100.00;101637.53;6099991;23;20180;-68
2024/02/20 08:11:34;;;;;;;0.80;0.50;;;;;;;8.02;100.00;101636.19;6099737;23;20647;-67
2024/02/20 08:14:03;;;;;;;1.42;0.70;;;;;;;8.10;100.00;101633.47;6098398;23;20152;-68
2024/02/20 08:16:35;;;;;;;0.80;0.50;;;;;;;8.26;100.00;101641.59;6098275;23;20156;-68
2024/02/20 08:19:04;;;;;;;1.77;1.30;;;;;;;8.51;100.00;101647.84;6098483;23;20601;-67
2024/02/20 08:21:33;;;;;;;1.77;1.40;;;;;;;8.35;100.00;101641.59;6072719;23;20179;-67
2024/02/20 08:24:03;;;;;;;0.80;0.45;;;;;;;8.34;100.00;101640.75;6098579;23;20609;-65
2024/02/20 08:26:32;;;;;;;2.30;1.25;;;;;;;8.44;100.00;101648.66;6099145;23;20561;-66
2024/02/20 08:29:01;;;;;;;1.10;0.75;;;;;;;8.50;100.00;101646.16;6098777;23;20184;-65
2024/02/20 08:31:29;;;;;;;1.00;0.77;;;;;;;8.51;100.00;101653.22;6099072;23;20167;-66
2024/02/20 08:34:01;;;;;;;2.10;0.73;;;;;;;8.60;100.00;101651.34;6098201;23;20548;-65
2024/02/20 08:36:30;;;;;;;0.90;0.50;;;;;;;8.62;100.00;101654.72;6097584;23;20182;-66
2024/02/20 08:38:59;;;;;;;1.77;1.67;;;;;;;8.65;100.00;101657.09;6100517;23;20266;-67
2024/02/20 08:41:27;;;;;;;0.90;0.52;;;;;;;9.02;100.00;101654.63;6100316;23;20168;-68
2024/02/20 08:43:58;;;;;;;1.85;1.35;;;;;;;9.04;100.00;101663.41;6098748;23;20620;-67
2024/02/20 08:46:27;;;;;;;4.30;1.52;;;;;;;8.80;100.00;101659.94;6099253;23;20179;-67
2024/02/20 08:48:56;;;;;;;1.83;1.00;;;;;;;8.56;100.00;101660.81;6100528;23;20202;-67
2024/02/20 08:51:26;;;;;;;2.75;1.50;;;;;;;8.28;100.00;101655.72;6102027;23;20240;-67
2024/02/20 08:53:55;;;;;;;1.20;0.80;;;;;;;8.27;100.00;101666.69;6074489;23;20192;-67
2024/02/20 08:56:24;;;;;;;1.20;1.02;;;;;;;8.09;100.00;101666.84;6098856;23;20184;-67
2024/02/20 08:58:52;;;;;;;1.30;0.70;;;;;;;7.90;100.00;101664.44;6100011;23;20187;-65
2024/02/20 09:01:24;;;;;;;1.13;0.63;;;;;;;7.84;100.00;101662.44;6100112;23;20175;-66
2024/02/20 09:03:55;;;;;;;1.77;1.50;;;;;;;7.85;100.00;101674.88;6099909;23;20155;-65
2024/02/20 09:06:26;;;;;;;1.42;0.68;;;;;;;7.74;100.00;101678.75;6098729;23;20562;-65
2024/02/20 09:08:55;;;;;;;1.63;0.82;;;;;;;7.58;100.00;101683.25;6099762;23;20367;-64
2024/02/20 09:11:24;;;;;;;0.90;0.77;;;;;;;7.73;100.00;101679.75;6099257;23;20151;-66
2024/02/20 09:13:53;;;;;;;1.42;0.85;;;;;;;7.89;100.00;101684.31;6099479;23;20160;-67
2024/02/20 09:16:22;;;;;;;1.25;0.95;;;;;;;7.77;100.00;101680.28;6073706;23;20186;-67
2024/02/20 09:18:50;;;;;;;7.47;0.68;;;;;;;7.75;100.00;101693.06;6098726;23;20279;-67
2024/02/20 09:21:19;;;;;;;2.40;1.10;;;;;;;7.49;100.00;101695.84;6097827;23;20545;-66
2024/02/20 09:23:49;;;;;;;3.42;0.93;;;;;;;7.61;100.00;101691.00;6097717;23;20236;-66
2024/02/20 09:26:20;;;;;;;12.70;3.05;;;;;;;7.74;100.00;101688.69;6097179;23;20179;-66
2024/02/20 09:28:48;;;;;;;4.43;0.80;;;;;;;7.95;100.00;101688.22;6096969;23;20184;-67
2024/02/20 09:31:17;;;;;;;1.70;1.05;;;;;;;7.72;100.00;101693.38;6096673;23;20183;-67
2024/02/20 09:33:46;;;;;;;1.77;1.17;;;;;;;7.63;100.00;101700.63;6096604;23;20262;-66
2024/02/20 09:36:15;;;;;;;1.15;0.52;;;;;;;7.77;100.00;101696.44;6097138;23;20172;-68
2024/02/20 09:38:45;;;;;;;1.02;0.60;;;;;;;7.97;100.00;101718.56;6096625;23;20183;-66
2024/02/20 09:41:22;;;;;;;1.00;0.60;;;;;;;8.18;100.00;101711.66;6096602;23;20168;-66
2024/02/20 09:43:51;;;;;;;1.65;0.80;;;;;;;8.26;100.00;101708.16;6096875;23;20155;-66
2024/02/20 09:46:22;;;;;;;7.90;0.80;;;;;;;8.32;100.00;101712.06;6097403;23;20189;-67
2024/02/20 09:48:52;;;;;;;1.00;0.65;;;;;;;8.26;100.00;101709.00;6096070;23;20222;-67
2024/02/20 09:51:22;;;;;;;1.88;1.08;;;;;;;8.40;100.00;101720.16;6096654;23;20152;-67
2024/02/20 09:53:55;;;;;;;6.05;1.23;;;;;;;8.38;100.00;101712.22;6096676;23;20156;-67
2024/02/20 09:56:25;;;;;;;1.45;0.77;;;;;;;8.57;100.00;101728.06;6096884;23;20207;-67
2024/02/20 09:58:54;;;;;;;1.00;0.60;;;;;;;8.42;100.00;101724.38;6096618;23;20188;-69
2024/02/20 10:01:23;;;;;;;0.95;0.75;;;;;;;8.62;100.00;101724.84;6096582;23;20513;-68
2024/02/20 10:03:57;;;;;;;3.30;0.85;;;;;;;8.77;100.00;101728.56;6097080;23;20178;-67
2024/02/20 10:06:26;;;;;;;6.28;0.57;;;;;;;8.59;98.92;101730.59;6096348;23;20559;-67
2024/02/20 10:08:55;;;;;;;0.93;0.65;;;;;;;8.57;100.00;101729.91;6096311;23;20562;-67
2024/02/20 10:11:26;;;;;;;1.80;0.70;;;;;;;8.42;98.90;101729.78;6094667;23;20156;-67
2024/02/20 10:13:56;;;;;;;6.65;0.77;;;;;;;8.41;97.20;101732.63;6070767;23;20199;-68
2024/02/20 10:16:27;;;;;;;1.52;0.85;;;;;;;8.61;96.71;101737.53;6096614;23;20231;-68
2024/02/20 10:18:59;;;;;;;6.47;1.02;;;;;;;9.00;96.85;101756.56;6096706;23;20532;-68
2024/02/20 10:21:29;;;;;;;2.78;1.00;;;;;;;9.00;94.19;101739.53;6099298;23;20155;-67
2024/02/20 10:24:03;;;;;;;8.63;0.90;;;;;;;9.07;92.79;101746.75;6100479;23;20584;-68
2024/02/20 10:26:35;;;;;;;1.00;0.60;;;;;;;8.78;89.99;101751.84;6074410;23;20195;-67
2024/02/20 10:29:04;;;;;;;2.13;1.92;;;;;;;8.64;91.06;101750.69;6097293;23;20192;-67
2024/02/20 10:31:34;;;;;;;0.80;0.50;;;;;;;8.63;93.24;101753.53;6096757;23;20156;-67
2024/02/20 10:34:02;;;;;;;4.00;0.70;;;;;;;8.61;93.31;101747.47;6097117;23;20620;-67
2024/02/20 10:36:42;;;;;;;0.90;0.60;;;;;;;8.50;94.75;101742.41;6071473;23;20511;-68
2024/02/20 10:39:11;;;;;;;0.80;0.50;;;;;;;8.54;95.16;101744.59;6096498;23;20622;-68
2024/02/20 10:41:42;;;;;;;7.85;1.40;;;;;;;8.42;94.85;101731.63;6096807;23;20568;-67
2024/02/20 10:44:11;;;;;;;1.15;0.60;;;;;;;8.63;93.64;101742.75;6096744;23;20214;-67
2024/02/20 10:46:41;;;;;;;3.47;2.20;;;;;;;8.89;93.19;101756.06;6096640;23;20180;-67
2024/02/20 10:49:20;;;;;;;6.88;1.15;;;;;;;9.24;91.89;101752.97;6096052;23;20218;-66
2024/02/20 10:51:51;;;;;;;1.05;0.70;;;;;;;9.02;86.05;101743.72;6096776;23;20155;-67
2024/02/20 10:54:22;;;;;;;2.85;0.60;;;;;;;9.08;85.71;101747.59;6097461;23;20156;-67
2024/02/20 10:56:55;;;;;;;1.30;0.70;;;;;;;9.10;84.81;101735.59;6099427;23;20154;-68
2024/02/20 10:59:26;;;;;;;1.80;0.50;;;;;;;9.47;85.55;101736.84;6072639;23;20196;-67
2024/02/20 11:01:55;;;;;;;0.80;0.50;;;;;;;9.53;84.20;101744.28;6096772;23;20392;-68
2024/02/20 11:04:25;;;;;;;1.60;0.93;;;;;;;9.23;84.04;101734.22;6096649;23;20152;-67
2024/02/20 11:06:55;;;;;;;1.17;1.00;;;;;;;9.24;85.07;101742.16;6096497;23;20640;-66
2024/02/20 11:09:26;;;;;;;1.85;0.90;;;;;;;9.22;87.14;101732.53;6096621;23;20416;-66
2024/02/20 11:12:07;;;;;;;27.40;1.25;;;;;;;9.28;85.97;101737.25;6096699;23;20152;-66
2024/02/20 11:14:36;;;;;;;1.25;0.70;;;;;;;9.33;85.87;101741.13;6098547;23;20235;-67
2024/02/20 11:17:14;;;;;;;7.93;2.60;;;;;;;9.19;85.58;101731.03;6073397;23;20171;-66
2024/02/20 11:20:10;;;;;;;0.80;0.50;;;;;;;9.35;85.47;101733.66;6097725;23;20274;-67
2024/02/20 11:22:39;;;;;;;1.05;0.80;;;;;;;9.23;85.70;101739.63;6100309;23;20347;-67
2024/02/20 11:25:09;;;;;;;1.00;0.82;;;;;;;8.93;87.33;101739.34;6098861;23;20227;-66
2024/02/20 11:27:44;;;;;;;0.80;0.47;;;;;;;8.82;86.48;101737.00;6098150;23;20270;-66
2024/02/20 11:30:21;;;;;;;1.83;1.73;;;;;;;8.68;87.62;101738.53;6098543;23;20154;-68
2024/02/20 11:32:51;;;;;;;1.48;0.77;;;;;;;9.00;88.46;101745.78;6098886;23;20155;-66
2024/02/20 11:35:24;;;;;;;1.20;0.60;;;;;;;9.23;87.87;101736.94;6098654;23;20160;-65
2024/02/20 11:37:55;;;;;;;4.10;0.88;;;;;;;9.18;87.02;101742.00;6098316;23;20163;-69
2024/02/20 11:40:28;;;;;;;3.50;0.95;;;;;;;8.96;87.26;101733.59;6098780;23;20160;-67
2024/02/20 11:43:00;;;;;;;4.13;0.73;;;;;;;8.90;88.28;101731.59;6098407;23;20160;-67